Time;durP1;ratioP1;P1;durP2;ratioP2;P2;SDS_P1;SDS_P2;PMS_P1;PMS_P2;Temp;Humidity;BMP_temperature;BMP_pressure;BME280_temperature;BME280_humidity;BME280_pressure;Samples;Min_cycle;Max_cycle;Signal;HPM_P1;HPM_P2
2023/10/10 00:00:37;;;;;;;16.75;10.77;;;17.30;64.60;;;;;;5018711;28;20657;-31
2023/10/10 00:03:06;;;;;;;17.85;10.77;;;17.30;64.60;;;;;;5013057;28;20230;-31
2023/10/10 00:05:36;;;;;;;16.63;11.15;;;17.30;64.60;;;;;;5009060;28;20229;-31
2023/10/10 00:08:05;;;;;;;12.10;10.10;;;17.30;64.70;;;;;;5011251;28;20288;-31
2023/10/10 00:10:34;;;;;;;15.15;9.90;;;17.30;64.70;;;;;;5023215;28;20205;-30
2023/10/10 00:13:04;;;;;;;16.02;10.23;;;17.20;64.60;;;;;;5007940;28;20283;-31
2023/10/10 00:15:33;;;;;;;14.20;10.63;;;17.20;64.70;;;;;;5015681;28;20705;-30
2023/10/10 00:18:07;;;;;;;17.15;9.75;;;17.20;64.70;;;;;;5018731;28;20216;-30
2023/10/10 00:20:41;;;;;;;16.33;10.15;;;17.10;64.70;;;;;;5007939;28;20193;-31
2023/10/10 00:23:11;;;;;;;17.58;10.15;;;17.10;64.70;;;;;;5025711;28;20205;-30
2023/10/10 00:25:42;;;;;;;15.35;10.32;;;17.10;64.80;;;;;;5019395;28;20308;-30
2023/10/10 00:28:20;;;;;;;14.23;10.32;;;17.00;64.80;;;;;;5024577;28;20255;-31
2023/10/10 00:30:49;;;;;;;14.07;10.00;;;17.00;64.80;;;;;;5018226;28;20201;-30
2023/10/10 00:33:20;;;;;;;14.85;9.80;;;17.00;65.70;;;;;;5017335;28;20213;-30
2023/10/10 00:35:47;;;;;;;12.77;10.05;;;17.00;64.90;;;;;;5017260;28;20220;-30
2023/10/10 00:38:24;;;;;;;15.73;10.20;;;17.00;64.90;;;;;;5023765;28;20211;-30
2023/10/10 00:40:54;;;;;;;12.50;10.25;;;17.00;64.90;;;;;;5022484;28;20185;-30
2023/10/10 00:43:24;;;;;;;13.10;10.13;;;16.90;65.00;;;;;;5011113;28;20579;-30
2023/10/10 00:45:57;;;;;;;15.68;9.93;;;16.90;65.00;;;;;;5015382;28;20443;-30
2023/10/10 00:48:29;;;;;;;16.50;10.10;;;16.90;65.00;;;;;;5006704;28;20599;-30
2023/10/10 00:51:06;;;;;;;13.25;9.57;;;16.90;65.00;;;;;;5023367;28;20209;-30
2023/10/10 00:53:34;;;;;;;12.63;9.60;;;16.80;65.00;;;;;;5008172;28;20343;-30
2023/10/10 00:56:05;;;;;;;17.92;10.30;;;16.80;65.00;;;;;;5004665;28;20221;-30
2023/10/10 00:58:37;;;;;;;13.67;10.20;;;16.80;65.00;;;;;;5016031;28;20263;-30
2023/10/10 01:01:09;;;;;;;12.70;10.20;;;16.80;65.00;;;;;;5022619;28;20315;-30
2023/10/10 01:03:41;;;;;;;12.10;9.70;;;16.80;65.10;;;;;;5024854;28;21138;-30
2023/10/10 01:06:24;;;;;;;14.82;9.63;;;16.70;65.10;;;;;;5019321;28;20201;-30
2023/10/10 01:08:57;;;;;;;12.77;9.85;;;16.70;65.10;;;;;;5015254;28;20789;-30
2023/10/10 01:11:25;;;;;;;16.55;11.55;;;16.70;65.10;;;;;;5020161;28;20209;-30
2023/10/10 01:13:52;;;;;;;13.35;9.95;;;16.70;65.10;;;;;;5006510;28;20237;-30
2023/10/10 01:16:24;;;;;;;13.93;10.43;;;16.60;65.10;;;;;;5022261;28;20201;-30
2023/10/10 01:18:59;;;;;;;12.98;10.48;;;16.60;65.10;;;;;;5025264;28;20193;-30
2023/10/10 01:21:30;;;;;;;15.40;8.97;;;16.60;65.10;;;;;;5035837;28;20221;-30
2023/10/10 01:24:11;;;;;;;13.70;9.45;;;16.60;65.10;;;;;;5007862;28;20769;-30
2023/10/10 01:26:50;;;;;;;18.00;9.73;;;16.50;65.10;;;;;;5026121;28;20213;-30
2023/10/10 01:29:25;;;;;;;15.50;10.07;;;16.50;65.20;;;;;;5024463;28;20200;-30
2023/10/10 01:31:54;;;;;;;12.75;9.55;;;16.50;65.20;;;;;;5024845;28;20216;-30
2023/10/10 01:34:31;;;;;;;14.60;10.75;;;16.50;65.30;;;;;;5004923;28;20221;-30
2023/10/10 01:37:41;;;;;;;14.75;10.00;;;16.50;65.30;;;;;;5022162;28;20212;-31
2023/10/10 01:40:18;;;;;;;13.13;9.32;;;16.50;65.40;;;;;;5017903;28;20846;-31
2023/10/10 01:42:54;;;;;;;13.27;9.05;;;16.40;65.30;;;;;;5020598;28;20225;-30
2023/10/10 01:45:26;;;;;;;16.10;10.30;;;16.40;65.30;;;;;;5008183;28;20296;-30
2023/10/10 01:47:56;;;;;;;18.10;9.82;;;16.40;65.30;;;;;;5008486;28;20308;-30
2023/10/10 01:50:27;;;;;;;16.05;10.60;;;16.40;65.40;;;;;;5016015;28;20205;-30
2023/10/10 01:52:57;;;;;;;13.75;9.32;;;16.30;65.40;;;;;;5007421;28;20216;-31
2023/10/10 01:55:25;;;;;;;11.07;9.57;;;16.30;65.40;;;;;;5013514;28;20594;-31
2023/10/10 01:58:01;;;;;;;12.93;9.57;;;16.30;65.40;;;;;;5021783;28;20208;-31
2023/10/10 02:00:34;;;;;;;16.17;9.68;;;16.30;65.40;;;;;;5013488;28;20292;-30
2023/10/10 02:03:04;;;;;;;12.15;9.55;;;16.30;65.40;;;;;;5026016;28;20245;-31
2023/10/10 02:08:09;;;;;;;13.50;9.50;;;16.30;65.50;;;;;;5022274;28;20640;-30
2023/10/10 02:10:49;;;;;;;15.25;9.93;;;16.30;65.50;;;;;;5026210;28;20196;-31
2023/10/10 02:13:17;;;;;;;14.27;9.57;;;16.30;65.50;;;;;;5010826;28;20212;-30
2023/10/10 02:15:47;;;;;;;17.67;10.60;;;16.30;65.60;;;;;;5020345;28;20287;-31
2023/10/10 02:18:23;;;;;;;15.48;9.95;;;16.20;65.50;;;;;;5017186;28;20210;-30
2023/10/10 02:20:54;;;;;;;14.05;9.60;;;16.20;65.60;;;;;;5011556;28;20205;-30
2023/10/10 02:23:33;;;;;;;15.18;9.73;;;16.20;65.60;;;;;;5006876;28;20245;-30
2023/10/10 02:26:20;;;;;;;16.73;10.27;;;16.20;65.60;;;;;;5003511;28;20228;-30
2023/10/10 02:28:48;;;;;;;12.10;9.43;;;16.20;65.60;;;;;;5024515;28;20469;-30
2023/10/10 02:31:16;;;;;;;14.73;9.45;;;16.20;65.60;;;;;;5007786;28;20282;-30
2023/10/10 02:33:50;;;;;;;14.80;10.93;;;16.20;65.60;;;;;;5015398;28;20218;-30
2023/10/10 02:36:30;;;;;;;14.65;9.75;;;16.20;65.70;;;;;;5003718;28;20201;-30
2023/10/10 02:39:11;;;;;;;11.90;9.55;;;16.20;65.60;;;;;;5005189;28;20224;-30
2023/10/10 02:41:38;;;;;;;18.17;9.80;;;16.10;65.60;;;;;;5013090;28;20667;-30
2023/10/10 02:44:10;;;;;;;13.43;9.02;;;16.10;65.70;;;;;;5010752;28;20247;-30
2023/10/10 02:46:39;;;;;;;14.73;8.88;;;16.10;65.70;;;;;;5016475;28;20569;-30
2023/10/10 02:49:29;;;;;;;10.90;8.60;;;16.10;65.70;;;;;;5027203;28;20691;-30
2023/10/10 02:51:58;;;;;;;12.80;8.87;;;16.10;65.70;;;;;;5016086;28;20221;-30
2023/10/10 03:02:57;;;;;;;15.30;9.82;;;16.00;65.70;;;;;;5025195;28;20240;-30
2023/10/10 03:05:50;;;;;;;15.43;9.25;;;16.00;65.60;;;;;;5024575;28;20300;-30
2023/10/10 03:11:00;;;;;;;14.43;9.77;;;15.90;65.70;;;;;;5004632;28;20633;-30
2023/10/10 03:29:50;;;;;;;17.90;8.68;;;15.80;65.70;;;;;;5008435;28;20232;-30
2023/10/10 03:32:33;;;;;;;12.70;9.05;;;15.80;65.70;;;;;;5011836;28;20213;-31
2023/10/10 03:35:13;;;;;;;13.87;9.13;;;15.80;65.80;;;;;;5016973;28;20244;-30
2023/10/10 03:37:43;;;;;;;13.70;8.60;;;15.80;65.80;;;;;;5012435;28;20208;-30
2023/10/10 05:26:06;;;;;;;16.57;8.90;;;15.20;66.20;;;;;;5020349;28;20220;-31
2023/10/10 05:28:40;;;;;;;17.63;10.07;;;15.20;66.10;;;;;;5005869;28;20209;-32
2023/10/10 05:31:10;;;;;;;15.80;9.30;;;15.20;66.20;;;;;;5021822;28;20812;-33
2023/10/10 05:33:37;;;;;;;15.47;8.43;;;15.30;66.20;;;;;;5024844;28;20204;-33
2023/10/10 05:36:08;;;;;;;17.33;9.50;;;15.20;66.20;;;;;;5018091;28;20222;-33
2023/10/10 05:38:39;;;;;;;14.43;8.50;;;15.30;66.30;;;;;;5016953;28;20229;-33
2023/10/10 05:41:10;;;;;;;19.73;9.88;;;15.20;66.20;;;;;;5008656;28;20277;-33
2023/10/10 05:43:37;;;;;;;18.97;9.60;;;15.20;66.20;;;;;;5010623;28;20273;-33
2023/10/10 05:46:08;;;;;;;17.15;9.82;;;15.20;66.20;;;;;;4991169;28;20211;-33
2023/10/10 05:48:39;;;;;;;19.47;10.00;;;15.20;66.20;;;;;;5021248;28;20295;-34
2023/10/10 05:51:09;;;;;;;18.33;9.67;;;15.20;66.20;;;;;;5028363;28;20934;-33
2023/10/10 05:53:36;;;;;;;14.23;9.10;;;15.20;66.20;;;;;;5010724;28;20568;-33
2023/10/10 05:56:18;;;;;;;17.90;9.73;;;15.20;66.20;;;;;;4989608;28;20225;-33
2023/10/10 05:58:48;;;;;;;14.50;9.63;;;15.20;66.20;;;;;;5016589;28;20213;-33
2023/10/10 06:01:18;;;;;;;19.10;9.70;;;15.20;66.20;;;;;;5031474;28;20233;-33
2023/10/10 06:03:51;;;;;;;14.30;8.73;;;15.20;66.20;;;;;;5008915;28;20264;-33
2023/10/10 06:06:18;;;;;;;14.60;8.83;;;15.20;66.20;;;;;;4992594;28;20216;-33
2023/10/10 06:08:45;;;;;;;16.57;9.50;;;15.10;66.20;;;;;;5025313;28;20508;-33
2023/10/10 06:11:16;;;;;;;14.90;8.90;;;15.10;66.30;;;;;;5022163;28;20204;-32
2023/10/10 06:13:48;;;;;;;14.80;8.60;;;15.10;66.20;;;;;;5009144;28;20324;-32
2023/10/10 06:16:16;;;;;;;14.75;8.50;;;15.10;66.20;;;;;;5007093;28;20727;-32
2023/10/10 06:18:50;;;;;;;14.33;7.97;;;15.10;66.30;;;;;;5019714;28;20653;-32
2023/10/10 06:21:20;;;;;;;14.53;9.37;;;15.10;66.30;;;;;;5014990;28;20809;-32
2023/10/10 06:23:49;;;;;;;15.48;8.43;;;15.10;66.30;;;;;;5006880;28;20225;-32
2023/10/10 06:26:21;;;;;;;18.13;9.32;;;15.10;66.30;;;;;;5012761;28;20194;-32
2023/10/10 06:28:53;;;;;;;12.57;8.80;;;15.10;66.30;;;;;;5019218;28;20209;-32
2023/10/10 06:31:33;;;;;;;14.63;9.17;;;15.10;66.30;;;;;;5023285;28;20211;-32
2023/10/10 06:34:19;;;;;;;15.30;8.38;;;15.10;66.30;;;;;;5009466;28;20221;-32
2023/10/10 06:36:54;;;;;;;11.50;7.90;;;15.10;66.30;;;;;;5006823;28;20762;-32
2023/10/10 06:39:32;;;;;;;21.37;8.80;;;15.10;66.40;;;;;;5007237;28;20201;-32
2023/10/10 06:42:03;;;;;;;19.37;8.47;;;15.10;66.40;;;;;;5021037;28;20224;-32
2023/10/10 06:44:35;;;;;;;17.73;8.80;;;15.10;66.50;;;;;;5017528;28;20228;-32
2023/10/10 06:47:11;;;;;;;12.07;8.57;;;15.10;66.40;;;;;;5029783;28;20209;-32
2023/10/10 06:49:53;;;;;;;15.70;8.13;;;15.10;66.50;;;;;;5014599;28;20217;-33
2023/10/10 06:52:27;;;;;;;15.13;8.73;;;15.10;66.50;;;;;;5023133;28;20266;-33
2023/10/10 06:54:58;;;;;;;19.97;8.43;;;15.10;66.60;;;;;;5011931;28;20225;-32
2023/10/10 06:57:38;;;;;;;20.90;8.67;;;15.20;66.60;;;;;;5014030;28;20201;-32
2023/10/10 07:00:21;;;;;;;16.00;8.70;;;15.20;66.60;;;;;;5013106;28;20463;-32
2023/10/10 07:02:53;;;;;;;15.80;8.77;;;15.20;66.70;;;;;;5011162;28;20660;-32
2023/10/10 07:05:26;;;;;;;16.57;9.30;;;15.20;66.70;;;;;;5011333;28;20296;-32
2023/10/10 07:07:58;;;;;;;15.37;9.37;;;15.20;66.60;;;;;;5015482;28;20223;-32
2023/10/10 07:10:33;;;;;;;18.37;8.67;;;15.30;66.70;;;;;;5021497;28;20578;-32
2023/10/10 07:13:11;;;;;;;16.60;8.40;;;15.30;66.70;;;;;;5022039;28;20565;-32
2023/10/10 07:15:41;;;;;;;13.87;8.50;;;15.30;66.70;;;;;;5008554;28;20548;-32
2023/10/10 07:18:14;;;;;;;13.30;7.95;;;15.30;66.70;;;;;;5014261;28;20204;-32
2023/10/10 07:24:02;;;;;;;15.20;8.87;;;15.40;66.80;;;;;;5038401;28;20203;-32
2023/10/10 07:26:40;;;;;;;18.17;8.33;;;15.40;66.80;;;;;;5027810;28;20210;-32
2023/10/10 07:29:58;;;;;;;16.67;7.83;;;15.40;66.80;;;;;;5029057;28;20207;-32
2023/10/10 07:32:15;;;;;;;16.42;8.60;;;15.40;66.80;;;;;;5031493;28;20566;-32
2023/10/10 07:34:51;;;;;;;14.60;8.57;;;15.50;66.90;;;;;;5026395;28;20236;-32
2023/10/10 07:37:27;;;;;;;15.90;8.23;;;15.50;66.90;;;;;;5019993;28;20641;-32
2023/10/10 07:39:55;;;;;;;12.53;7.60;;;15.50;66.90;;;;;;5018137;28;20566;-32
2023/10/10 07:42:29;;;;;;;14.10;7.90;;;15.60;67.00;;;;;;5007648;28;20236;-32
2023/10/10 07:45:13;;;;;;;15.43;8.50;;;15.60;67.00;;;;;;5011923;28;20218;-32
2023/10/10 07:50:35;;;;;;;13.63;8.48;;;15.70;67.00;;;;;;5011275;28;20303;-32
2023/10/10 07:53:05;;;;;;;14.07;8.23;;;15.70;67.00;;;;;;5024472;28;20209;-32
2023/10/10 07:55:52;;;;;;;16.67;8.20;;;15.70;67.10;;;;;;5037608;28;20210;-34
2023/10/10 07:58:24;;;;;;;14.70;8.23;;;15.80;67.10;;;;;;5021377;28;20193;-32
2023/10/10 08:01:10;;;;;;;15.60;8.33;;;15.80;67.00;;;;;;5010679;28;20718;-32
2023/10/10 08:03:44;;;;;;;11.77;8.17;;;15.90;67.10;;;;;;5008271;28;20256;-32
2023/10/10 08:06:18;;;;;;;18.30;9.00;;;15.90;67.10;;;;;;5023252;28;20201;-32
2023/10/10 08:08:56;;;;;;;13.87;8.20;;;16.00;67.20;;;;;;5027656;28;20213;-32
2023/10/10 08:11:35;;;;;;;13.57;7.93;;;16.00;67.20;;;;;;5013437;28;20334;-32
2023/10/10 08:14:07;;;;;;;16.10;8.20;;;16.10;67.20;;;;;;5014252;28;20293;-32
2023/10/10 08:16:43;;;;;;;16.87;8.30;;;16.10;67.20;;;;;;5034111;28;20219;-32
2023/10/10 08:19:11;;;;;;;15.40;8.27;;;16.10;67.20;;;;;;5008004;28;20202;-32
2023/10/10 08:21:48;;;;;;;13.57;8.33;;;16.20;67.40;;;;;;5009767;28;20205;-32
2023/10/10 08:24:17;;;;;;;12.38;7.13;;;16.30;67.30;;;;;;5029964;28;20327;-32
2023/10/10 08:26:44;;;;;;;14.98;8.85;;;16.30;67.30;;;;;;5012404;28;20224;-32
2023/10/10 08:29:15;;;;;;;13.52;7.70;;;16.40;67.30;;;;;;5008668;28;20213;-32
2023/10/10 08:31:47;;;;;;;14.70;8.25;;;16.40;67.30;;;;;;5008882;28;20206;-32
2023/10/10 08:34:18;;;;;;;15.35;8.30;;;16.50;67.30;;;;;;5009332;28;20233;-30
2023/10/10 08:36:51;;;;;;;15.05;8.57;;;16.50;67.40;;;;;;5009309;28;20286;-30
2023/10/10 08:39:32;;;;;;;12.60;7.60;;;16.60;67.40;;;;;;5024616;28;20734;-30
2023/10/10 08:42:05;;;;;;;12.63;7.85;;;16.60;67.40;;;;;;5015909;28;20210;-30
2023/10/10 08:44:38;;;;;;;16.65;7.80;;;16.70;67.40;;;;;;5013624;28;20209;-30
2023/10/10 08:47:07;;;;;;;15.05;7.78;;;16.80;67.50;;;;;;5019625;28;20201;-30
2023/10/10 08:49:35;;;;;;;15.40;8.20;;;16.90;67.50;;;;;;4991494;28;20206;-30
2023/10/10 08:52:03;;;;;;;14.30;8.10;;;16.90;67.50;;;;;;5009828;28;20224;-30
2023/10/10 08:54:32;;;;;;;19.80;8.07;;;17.00;67.50;;;;;;5006346;28;20205;-30
2023/10/10 08:57:03;;;;;;;20.67;8.30;;;17.10;67.60;;;;;;5005111;28;20224;-30
2023/10/10 08:59:31;;;;;;;12.05;7.93;;;17.10;67.60;;;;;;5018916;28;20691;-30
2023/10/10 09:02:17;;;;;;;17.67;8.98;;;17.20;67.60;;;;;;5012413;28;20236;-31
2023/10/10 09:04:45;;;;;;;14.18;7.50;;;17.30;67.70;;;;;;5025472;28;20252;-30
2023/10/10 09:07:20;;;;;;;13.45;7.70;;;17.40;67.70;;;;;;5009770;28;20207;-30
2023/10/10 09:10:04;;;;;;;13.65;7.40;;;17.40;68.30;;;;;;5009834;28;20637;-30
2023/10/10 09:12:48;;;;;;;14.48;7.53;;;17.50;67.70;;;;;;5017320;28;20192;-30
2023/10/10 09:15:16;;;;;;;16.40;7.65;;;17.50;67.70;;;;;;5009534;28;20222;-30
2023/10/10 09:17:47;;;;;;;13.45;7.50;;;17.60;67.60;;;;;;5012778;28;20678;-31
2023/10/10 09:20:28;;;;;;;14.05;7.88;;;17.70;67.70;;;;;;5021504;28;20217;-31
2023/10/10 09:23:11;;;;;;;16.80;7.97;;;17.70;67.80;;;;;;5022114;28;20252;-30
2023/10/10 09:25:44;;;;;;;15.55;7.72;;;17.80;67.60;;;;;;5012990;28;20254;-30
2023/10/10 09:28:16;;;;;;;18.95;8.68;;;17.90;67.80;;;;;;5005932;28;20210;-30
2023/10/10 09:30:58;;;;;;;18.67;7.45;;;18.00;67.80;;;;;;5009664;28;20225;-30
2023/10/10 09:36:15;;;;;;;16.50;7.75;;;18.10;67.90;;;;;;5018598;28;20255;-30
2023/10/10 09:38:54;;;;;;;14.25;7.30;;;18.20;67.80;;;;;;5014666;28;20316;-30
2023/10/10 09:41:37;;;;;;;16.27;8.20;;;18.30;67.90;;;;;;5007443;28;20205;-30
2023/10/10 10:09:18;;;;;;;10.70;6.38;;;19.10;68.10;;;;;;5007681;28;20730;-30
2023/10/10 10:12:31;;;;;;;13.63;6.43;;;19.20;68.10;;;;;;5010053;28;20206;-30
2023/10/10 10:15:05;;;;;;;13.27;6.43;;;19.20;68.00;;;;;;5007276;28;20348;-30
2023/10/10 10:17:47;;;;;;;13.52;5.85;;;19.30;67.90;;;;;;5017774;28;20205;-30
2023/10/10 10:20:47;;;;;;;10.98;6.30;;;19.40;68.00;;;;;;5025987;28;20196;-30
2023/10/10 10:23:27;;;;;;;14.75;6.30;;;19.50;68.00;;;;;;5020283;28;20875;-31
2023/10/10 10:26:10;;;;;;;10.15;5.65;;;19.50;67.90;;;;;;5022034;28;20941;-30
2023/10/10 10:28:42;;;;;;;12.60;5.43;;;19.60;67.90;;;;;;5026769;28;20238;-30
2023/10/10 10:31:27;;;;;;;11.45;5.30;;;19.60;67.90;;;;;;5025549;28;20237;-31
2023/10/10 10:34:07;;;;;;;9.35;5.32;;;19.70;67.80;;;;;;5011189;28;20691;-31
2023/10/10 10:36:42;;;;;;;8.95;5.20;;;19.80;67.90;;;;;;5011663;28;20723;-30
2023/10/10 10:39:26;;;;;;;12.45;4.90;;;19.90;67.80;;;;;;5019169;28;20197;-30
2023/10/10 10:41:59;;;;;;;8.80;4.68;;;19.90;67.80;;;;;;5014571;28;20219;-30
2023/10/10 10:44:44;;;;;;;11.70;5.07;;;20.00;67.80;;;;;;5026796;28;20379;-31
2023/10/10 10:47:34;;;;;;;10.00;4.60;;;20.00;67.60;;;;;;5015880;28;20204;-31
2023/10/10 10:50:18;;;;;;;13.00;4.75;;;20.10;67.50;;;;;;5023431;28;20205;-30
2023/10/10 10:52:57;;;;;;;9.68;4.80;;;20.10;67.50;;;;;;5027240;28;20300;-31
2023/10/10 10:55:28;;;;;;;14.15;4.57;;;20.20;67.30;;;;;;5025567;28;20217;-31
2023/10/10 10:58:20;;;;;;;11.80;5.18;;;20.20;67.10;;;;;;5023713;28;20217;-31
2023/10/10 11:03:33;;;;;;;13.13;4.88;;;20.30;67.20;;;;;;5021742;28;20221;-31
2023/10/10 11:06:07;;;;;;;10.15;4.07;;;20.30;67.20;;;;;;5026031;28;20216;-31
2023/10/10 11:16:56;;;;;;;10.30;4.25;;;20.50;67.00;;;;;;5021613;28;20702;-30
2023/10/10 11:22:05;;;;;;;12.80;4.40;;;20.60;66.90;;;;;;5008563;28;20693;-30
2023/10/10 11:24:37;;;;;;;13.15;4.53;;;20.70;67.00;;;;;;5010725;28;20217;-31
2023/10/10 11:29:42;;;;;;;15.30;4.43;;;20.70;66.60;;;;;;5015044;28;21814;-30
2023/10/10 11:32:23;;;;;;;7.75;3.80;;;20.80;66.20;;;;;;5019601;28;20694;-31
2023/10/10 11:35:11;;;;;;;11.50;4.40;;;20.80;67.40;;;;;;5029417;28;20189;-30
2023/10/10 11:38:05;;;;;;;12.48;4.43;;;20.90;66.20;;;;;;5027752;28;20232;-30
2023/10/10 11:40:38;;;;;;;11.27;4.82;;;20.90;66.20;;;;;;5028758;28;20667;-31
2023/10/10 11:43:17;;;;;;;9.23;4.70;;;20.90;66.20;;;;;;5021069;28;20209;-30
2023/10/10 11:45:51;;;;;;;9.45;4.78;;;20.90;66.00;;;;;;5006740;28;20698;-31
2023/10/10 11:48:23;;;;;;;10.80;4.68;;;21.00;66.20;;;;;;5007129;28;20232;-30
2023/10/10 11:50:56;;;;;;;8.80;4.90;;;21.00;66.10;;;;;;5007147;28;20215;-30
2023/10/10 11:53:27;;;;;;;10.52;4.90;;;21.10;66.30;;;;;;5011225;28;20213;-31
2023/10/10 11:56:02;;;;;;;9.05;4.22;;;21.10;65.80;;;;;;5009665;28;20340;-30
2023/10/10 11:58:38;;;;;;;6.80;4.47;;;21.10;65.90;;;;;;5010436;28;20237;-31
2023/10/10 12:01:17;;;;;;;10.98;4.68;;;21.20;65.90;;;;;;5008531;28;20232;-31
2023/10/10 12:03:44;;;;;;;9.10;4.50;;;21.20;65.40;;;;;;5007542;28;20208;-30
2023/10/10 12:06:19;;;;;;;11.40;4.57;;;21.30;65.30;;;;;;4989787;28;20205;-31
2023/10/10 12:08:50;;;;;;;9.68;4.63;;;21.30;65.60;;;;;;5009252;28;20216;-33
2023/10/10 12:11:21;;;;;;;10.27;5.45;;;21.30;65.30;;;;;;5010240;28;20252;-33
2023/10/10 12:13:52;;;;;;;9.50;4.80;;;21.30;65.30;;;;;;5010137;28;20224;-33
2023/10/10 12:16:23;;;;;;;7.80;4.38;;;21.40;65.40;;;;;;5017600;28;20223;-33
2023/10/10 12:18:59;;;;;;;8.75;4.50;;;21.40;65.30;;;;;;5028988;28;20240;-32
2023/10/10 12:21:26;;;;;;;8.60;4.78;;;21.50;65.30;;;;;;5027871;28;20203;-32
2023/10/10 12:23:55;;;;;;;10.93;4.40;;;21.50;65.20;;;;;;5019468;28;20284;-32
2023/10/10 12:26:30;;;;;;;9.52;5.15;;;21.50;65.20;;;;;;5007932;28;20207;-32
2023/10/10 12:29:01;;;;;;;10.88;4.70;;;21.60;65.10;;;;;;5008077;28;20209;-33
2023/10/10 12:31:33;;;;;;;8.18;4.38;;;21.60;64.90;;;;;;5016622;28;20247;-33
2023/10/10 12:34:01;;;;;;;8.35;4.20;;;21.70;64.40;;;;;;5026849;28;20209;-32
2023/10/10 12:36:32;;;;;;;15.57;4.72;;;21.70;64.60;;;;;;5028940;28;20224;-32
2023/10/10 12:39:04;;;;;;;9.25;4.28;;;21.80;64.70;;;;;;5028390;28;20718;-33
2023/10/10 12:41:45;;;;;;;14.25;4.82;;;21.80;64.00;;;;;;5021691;28;20272;-32
2023/10/10 12:44:13;;;;;;;10.18;4.15;;;21.80;64.30;;;;;;5008373;28;20224;-32
2023/10/10 12:46:41;;;;;;;12.55;4.30;;;21.90;64.30;;;;;;5012828;28;20279;-32
2023/10/10 12:49:11;;;;;;;6.47;3.65;;;21.90;64.10;;;;;;5009233;28;20301;-32
2023/10/10 12:51:44;;;;;;;9.25;4.03;;;21.90;63.10;;;;;;4991115;28;20213;-32
2023/10/10 12:54:17;;;;;;;10.43;3.83;;;22.00;63.50;;;;;;5006735;28;20222;-32
2023/10/10 12:56:58;;;;;;;8.18;3.58;;;22.00;63.60;;;;;;5012756;28;20225;-32
2023/10/10 12:59:28;;;;;;;8.88;3.97;;;22.00;63.40;;;;;;5021572;28;20196;-32
2023/10/10 13:02:03;;;;;;;11.25;3.90;;;22.10;63.20;;;;;;5006140;28;20232;-32
2023/10/10 13:04:33;;;;;;;8.18;3.85;;;22.10;62.90;;;;;;5005748;28;20668;-32
2023/10/10 13:07:07;;;;;;;9.23;3.85;;;22.10;62.80;;;;;;5005668;28;20205;-32
2023/10/10 13:09:42;;;;;;;9.45;4.45;;;22.20;62.80;;;;;;5004635;28;20200;-32
2023/10/10 13:12:18;;;;;;;10.82;4.20;;;22.20;62.90;;;;;;5004230;28;20228;-31
2023/10/10 13:15:00;;;;;;;12.07;4.30;;;22.30;62.70;;;;;;5006239;28;20202;-32
2023/10/10 13:19:58;;;;;;;8.52;4.55;;;22.40;63.20;;;;;;5017247;28;20826;-32
2023/10/10 13:22:28;;;;;;;6.72;3.80;;;22.40;63.70;;;;;;5030448;28;20228;-32
2023/10/10 13:24:58;;;;;;;12.18;4.43;;;22.50;62.90;;;;;;5013736;28;20569;-32
2023/10/10 13:27:28;;;;;;;8.27;4.47;;;22.60;62.20;;;;;;5024154;28;20367;-32
2023/10/10 13:29:55;;;;;;;6.65;3.90;;;22.60;62.60;;;;;;4991285;28;20244;-32
2023/10/10 13:32:24;;;;;;;10.15;4.47;;;22.70;62.80;;;;;;5033478;28;20205;-32
2023/10/10 13:34:52;;;;;;;8.77;4.38;;;22.80;62.40;;;;;;5017195;28;20225;-32
2023/10/10 13:37:22;;;;;;;9.95;4.70;;;22.80;62.50;;;;;;5019337;28;20259;-32
2023/10/10 13:39:55;;;;;;;7.88;4.03;;;22.80;62.60;;;;;;5007840;28;20208;-32
2023/10/10 13:42:24;;;;;;;8.60;5.05;;;22.90;62.80;;;;;;5009797;28;20189;-32
2023/10/10 13:45:09;;;;;;;10.70;4.70;;;22.90;62.10;;;;;;5013587;28;20203;-32
2023/10/10 13:47:39;;;;;;;15.48;4.90;;;23.00;62.10;;;;;;5019718;28;20294;-32
2023/10/10 13:52:53;;;;;;;8.02;4.35;;;23.10;62.40;;;;;;5026700;28;20662;-33
2023/10/10 13:55:21;;;;;;;7.85;4.13;;;23.10;62.20;;;;;;5015295;28;20249;-33
2023/10/10 13:57:49;;;;;;;4.82;3.70;;;23.10;61.00;;;;;;5005188;28;20233;-33
2023/10/10 14:00:29;;;;;;;9.40;3.90;;;23.20;62.00;;;;;;5006390;28;20201;-33
2023/10/10 14:03:05;;;;;;;10.95;4.07;;;23.20;61.10;;;;;;5023083;28;20233;-33
2023/10/10 14:05:34;;;;;;;8.10;3.70;;;23.20;61.30;;;;;;5020138;28;20632;-33
2023/10/10 14:08:03;;;;;;;8.10;4.30;;;23.30;61.10;;;;;;5021457;28;20304;-32
2023/10/10 14:10:41;;;;;;;8.98;4.38;;;23.30;61.10;;;;;;5018865;28;20284;-32
2023/10/10 14:13:19;;;;;;;10.60;4.15;;;23.30;60.90;;;;;;5014741;28;20209;-33
2023/10/10 14:15:57;;;;;;;8.27;4.05;;;23.40;61.00;;;;;;5006937;28;20256;-33
2023/10/10 14:18:28;;;;;;;7.85;4.53;;;23.40;60.90;;;;;;5014941;28;20225;-32
2023/10/10 14:21:00;;;;;;;6.47;4.00;;;23.40;61.00;;;;;;5010431;28;20308;-33
2023/10/10 14:23:29;;;;;;;11.85;4.05;;;23.40;61.20;;;;;;5010117;28;20746;-33
2023/10/10 14:26:17;;;;;;;7.03;4.47;;;23.40;61.30;;;;;;5007695;28;20327;-32
2023/10/10 14:28:52;;;;;;;9.30;4.13;;;23.50;60.90;;;;;;5014219;28;20969;-33
2023/10/10 14:31:24;;;;;;;8.05;4.20;;;23.50;60.90;;;;;;5005657;28;20201;-33
2023/10/10 14:33:51;;;;;;;11.45;4.97;;;23.50;60.80;;;;;;5019943;28;20670;-33
2023/10/10 14:36:19;;;;;;;9.98;4.18;;;23.60;60.90;;;;;;5012946;28;20292;-33
2023/10/10 14:38:49;;;;;;;12.50;3.78;;;23.60;61.30;;;;;;5005382;28;20267;-33
2023/10/10 14:41:21;;;;;;;10.80;3.83;;;23.60;60.70;;;;;;5005317;28;20206;-32
2023/10/10 14:43:50;;;;;;;8.63;3.75;;;23.70;60.50;;;;;;5014470;28;20204;-33
2023/10/10 14:46:24;;;;;;;11.52;4.78;;;23.70;60.40;;;;;;5012300;28;20317;-33
2023/10/10 14:49:05;;;;;;;8.73;3.80;;;23.70;60.40;;;;;;5012655;28;20271;-32
2023/10/10 14:51:34;;;;;;;9.50;3.65;;;23.80;59.40;;;;;;5005839;28;20205;-32
2023/10/10 14:54:11;;;;;;;8.57;3.85;;;23.80;60.20;;;;;;5018609;28;20225;-33
2023/10/10 14:56:49;;;;;;;7.70;3.78;;;23.80;60.80;;;;;;5008371;28;20217;-33
2023/10/10 14:59:20;;;;;;;7.13;3.95;;;23.80;59.60;;;;;;5007986;28;20288;-33
2023/10/10 15:01:50;;;;;;;8.95;3.60;;;23.90;60.00;;;;;;5007515;28;20666;-32
2023/10/10 15:04:19;;;;;;;9.00;3.65;;;23.90;59.70;;;;;;5007019;28;20742;-33
2023/10/10 15:06:53;;;;;;;5.00;3.42;;;24.00;60.10;;;;;;5013726;28;20256;-33
2023/10/10 15:09:25;;;;;;;10.73;3.88;;;24.00;60.00;;;;;;5022121;28;20256;-33
2023/10/10 15:11:58;;;;;;;12.57;3.72;;;24.00;59.90;;;;;;5008994;28;20743;-32
2023/10/10 15:14:31;;;;;;;9.68;3.60;;;24.10;60.00;;;;;;5017547;28;20217;-32
2023/10/10 15:17:04;;;;;;;8.73;3.78;;;24.10;59.90;;;;;;5011774;28;20212;-33
2023/10/10 15:19:40;;;;;;;10.63;3.78;;;24.20;60.00;;;;;;5022813;28;20320;-30
2023/10/10 15:22:13;;;;;;;6.90;3.40;;;24.20;59.90;;;;;;5010187;28;20214;-30
2023/10/10 15:24:40;;;;;;;7.95;4.03;;;24.20;60.10;;;;;;5033502;28;20291;-30
2023/10/10 15:27:14;;;;;;;6.00;3.17;;;24.30;59.80;;;;;;5011576;28;20212;-30
2023/10/10 15:29:43;;;;;;;9.45;4.13;;;24.30;59.90;;;;;;5010339;28;20749;-30
2023/10/10 15:32:13;;;;;;;7.70;4.05;;;24.40;59.70;;;;;;5022108;28;20346;-30
2023/10/10 15:34:44;;;;;;;10.52;3.90;;;24.40;59.60;;;;;;5011133;28;20202;-30
2023/10/10 15:37:14;;;;;;;9.57;3.90;;;24.40;59.80;;;;;;4994314;28;20283;-30
2023/10/10 15:39:42;;;;;;;9.68;3.60;;;24.50;59.60;;;;;;5010391;28;20216;-30
2023/10/10 15:42:11;;;;;;;6.80;3.85;;;24.50;59.70;;;;;;5011851;28;20293;-30
2023/10/10 15:44:40;;;;;;;14.00;4.00;;;24.60;59.70;;;;;;5016549;28;20285;-31
2023/10/10 15:47:10;;;;;;;12.15;4.10;;;24.60;59.50;;;;;;5017036;28;20305;-30
2023/10/10 15:49:38;;;;;;;10.70;3.92;;;24.70;59.60;;;;;;5025072;28;20260;-30
2023/10/10 15:52:08;;;;;;;9.50;3.90;;;24.70;59.50;;;;;;5026970;28;20197;-30
2023/10/10 15:54:35;;;;;;;9.30;3.65;;;24.70;59.30;;;;;;5011366;28;20208;-30
2023/10/10 15:57:04;;;;;;;11.30;3.85;;;24.70;59.90;;;;;;5016567;28;20295;-30
2023/10/10 15:59:31;;;;;;;11.98;4.25;;;24.70;59.30;;;;;;5012610;28;20251;-30
2023/10/10 16:02:01;;;;;;;11.40;4.40;;;24.80;59.20;;;;;;5004131;28;20237;-32
2023/10/10 16:04:31;;;;;;;8.98;4.25;;;24.80;59.10;;;;;;5010580;28;20288;-30
2023/10/10 16:07:01;;;;;;;12.13;3.90;;;24.80;59.30;;;;;;5011333;28;20222;-30
2023/10/10 16:09:34;;;;;;;11.82;4.10;;;24.80;59.00;;;;;;5006174;28;20276;-30
2023/10/10 16:12:07;;;;;;;8.32;3.75;;;24.80;59.10;;;;;;5008007;28;20232;-30
2023/10/10 16:14:36;;;;;;;9.75;3.88;;;24.90;59.00;;;;;;5009970;28;20316;-30
2023/10/10 16:17:06;;;;;;;8.32;3.75;;;24.80;58.80;;;;;;5010401;28;20245;-30
2023/10/10 16:19:36;;;;;;;7.93;3.72;;;24.80;58.60;;;;;;5016044;28;20287;-31
2023/10/10 16:22:05;;;;;;;8.70;3.83;;;24.80;58.60;;;;;;5029484;28;20221;-31